Conroe, TX

9:26 AM CDT on April 25, 2015 (GMT -0500)
George Bush Intercontinental-Houston Airport | | Change Station
CLOSE
Current Station
Airport
Location: Houston Intercontinental,
Elevation: 108 ft
Nearby Weather Stations
Active Advisory: Severe Thunderstorm Watch

Elev 108 ft 29.98 °N, 95.34 °W | Updated 33 minutes ago

Rain
Rain
68 °F
Feels Like 68 °F
N
0
Wind Variable Wind from North

Today
High -- | Low -- °F
--% Chance of Precip.
Yesterday
High -- | Low -- °F
Precip. -- in
6:44 AM 7:55 PM
Waxing Crescent, 46% visible
Pressure 29.83 in
Visibility 8.0 miles
Clouds Few 5500 ft
Scattered Clouds 7500 ft
Mostly Cloudy 11000 ft
Dew Point 65 °F
Humidity 90%
Rainfall 0.19 in
Snow Depth Not available.
UV 1 out of 12
Pollen 7.90 out of 12
Air Quality Not available.
Flu Activity Local Activity
METAR KIAH 251353Z 00000KT 8SM RA FEW055 SCT075 BKN110 20/18 A2983 RMK AO2 TSE30 SLP100 TS DSIPTD P0004 T02000183

More Conditions Fewer Conditions

Pressure 29.83 in
Visibility 8.0 miles
Clouds Few 5500 ft
Scattered Clouds 7500 ft
Mostly Cloudy 11000 ft
Dew Point 65 °F
Humidity 90%
Rainfall 0.19 in
Snow Depth Not available.
UV 1 out of 12
Pollen 7.90 out of 12
Air Quality Not available.
Flu Activity Local Activity
METAR KIAH 251353Z 00000KT 8SM RA FEW055 SCT075 BKN110 20/18 A2983 RMK AO2 TSE30 SLP100 TS DSIPTD P0004 T02000183

More Conditions Fewer Conditions

10-Day Weather Forecast

Almanac

Astronomy

Apr. 25, 2015 Rise Set
Actual Time
Civil Twilight
Nautical Twilight
Astronomical Twilight
Moon
Length of Visible Light
Length of Day
Tomorrow will be .
, % of the Moon is Illuminated

Today's Extremes

State Highs State Lows

Community

WunderPhotos

Upload Photos

1,816,686 photos uploaded!

WunderBlogs® & News

Nearby

Air Quality

  Air Quality AQ Index Pollutant
Not available.

Snow Depth

Station Depth Elevation

Earthquake Activity

City Distance Mag. Time & Date
Minimum magnitude displayed is 2.5.

Coastal Water Temperatures

Place Temperature

Stations

Nearby Weather Stations

Station Location Temp. Windchill Dew Point Humidity Wind Precip. Elev Updated Type
                   
Severe Thunderstorm Watch
Statement as of 9:24 AM CDT on April 25, 2015

Severe Thunderstorm Watch 109 remains in effect until 100 PM CDT

TX
. Texas counties included are

Brazoria Chambers Fort Bend
Galveston Hardin Harris
Jasper Jefferson Liberty
Matagorda Montgomery Newton
Orange Waller